Time;durP1;ratioP1;P1;durP2;ratioP2;P2;SDS_P1;SDS_P2;PMS_P1;PMS_P2;Temp;Humidity;BMP_temperature;BMP_pressure;BME280_temperature;BME280_humidity;BME280_pressure;Samples;Min_cycle;Max_cycle;Signal;HPM_P1;HPM_P2
2023/04/26 00:02:26;;;;;;;8.00;2.03;;;;;;;2.11;100.00;100941.94;4901122;29;20058;-81
2023/04/26 00:04:54;;;;;;;3.72;1.50;;;;;;;2.04;100.00;100937.41;4917410;29;20040;-80
2023/04/26 00:07:25;;;;;;;8.43;1.88;;;;;;;2.00;100.00;100940.72;4901782;29;20044;-80
2023/04/26 00:09:52;;;;;;;7.97;2.20;;;;;;;2.02;100.00;100948.50;4917148;29;20043;-81
2023/04/26 00:12:19;;;;;;;5.47;1.70;;;;;;;2.03;100.00;100939.94;4917082;29;20043;-82
2023/04/26 00:14:48;;;;;;;9.43;2.05;;;;;;;2.02;100.00;100945.94;4917579;29;20067;-81
2023/04/26 00:17:15;;;;;;;6.43;1.85;;;;;;;1.96;100.00;100944.03;4901042;29;20051;-81
2023/04/26 00:19:41;;;;;;;8.10;1.88;;;;;;;1.95;100.00;100943.16;4916922;29;20044;-81
2023/04/26 00:22:08;;;;;;;4.40;1.92;;;;;;;1.91;100.00;100943.03;4917248;29;20056;-81
2023/04/26 00:24:35;;;;;;;3.72;1.38;;;;;;;1.88;100.00;100940.34;4916728;29;20119;-82
2023/04/26 00:27:04;;;;;;;5.75;1.92;;;;;;;1.92;100.00;100937.91;4916586;29;20126;-81
2023/04/26 00:29:30;;;;;;;3.97;1.77;;;;;;;1.95;100.00;100939.72;4916909;29;20102;-81
2023/04/26 00:31:57;;;;;;;10.95;2.13;;;;;;;1.93;100.00;100938.75;4917006;29;20040;-80
2023/04/26 00:34:23;;;;;;;4.15;1.88;;;;;;;1.91;100.00;100932.69;4917425;29;20162;-82
2023/04/26 00:36:50;;;;;;;11.85;2.40;;;;;;;1.95;100.00;100934.53;4900945;29;20463;-81
2023/04/26 00:39:16;;;;;;;7.53;1.88;;;;;;;1.97;100.00;100938.94;4916425;29;20040;-81
2023/04/26 00:41:43;;;;;;;4.85;1.73;;;;;;;1.96;100.00;100938.88;4901238;29;20432;-80
2023/04/26 00:44:13;;;;;;;3.75;1.23;;;;;;;1.88;100.00;100938.66;4901519;29;20052;-81
2023/04/26 00:46:40;;;;;;;16.02;1.55;;;;;;;1.85;100.00;100941.09;4901709;29;20051;-81
2023/04/26 00:49:06;;;;;;;6.15;2.03;;;;;;;1.81;100.00;100944.44;4916985;29;20044;-81
2023/04/26 00:51:33;;;;;;;3.10;1.73;;;;;;;1.83;100.00;100939.34;4916693;29;20044;-81
2023/04/26 00:54:00;;;;;;;5.97;1.48;;;;;;;1.82;100.00;100933.28;4916604;29;20043;-80
2023/04/26 00:56:26;;;;;;;4.72;1.25;;;;;;;1.93;100.00;100943.94;4916982;29;20483;-81
2023/04/26 00:58:53;;;;;;;7.50;1.67;;;;;;;1.87;100.00;100947.22;4916611;29;20122;-80
2023/04/26 01:01:20;;;;;;;6.88;2.25;;;;;;;1.82;100.00;100938.44;4901064;29;20052;-81
2023/04/26 01:03:46;;;;;;;13.15;2.78;;;;;;;1.77;100.00;100937.41;4917697;29;20040;-81
2023/04/26 01:06:13;;;;;;;6.82;1.70;;;;;;;1.74;100.00;100942.50;4903406;29;20048;-80
2023/04/26 01:08:40;;;;;;;6.40;1.90;;;;;;;1.76;100.00;100949.47;4921207;29;20048;-80
2023/04/26 01:11:06;;;;;;;2.58;1.35;;;;;;;1.76;100.00;100949.47;4922834;29;20044;-80
2023/04/26 01:13:34;;;;;;;8.85;1.98;;;;;;;1.73;100.00;100954.50;4905408;29;20063;-81
2023/04/26 01:16:02;;;;;;;7.70;1.73;;;;;;;1.71;100.00;100955.28;4921857;29;20059;-80
2023/04/26 01:18:29;;;;;;;4.10;1.77;;;;;;;1.75;100.00;100950.28;4921918;29;20131;-80
2023/04/26 01:20:56;;;;;;;12.25;1.85;;;;;;;1.69;100.00;100947.50;4905783;29;20052;-80
2023/04/26 01:23:24;;;;;;;8.30;1.90;;;;;;;1.69;100.00;100944.91;4922143;29;20052;-81
2023/04/26 01:25:50;;;;;;;7.28;2.80;;;;;;;1.76;100.00;100946.88;4905605;29;20045;-82
2023/04/26 01:28:17;;;;;;;7.40;1.40;;;;;;;1.77;100.00;100951.22;4921027;29;20040;-80
2023/04/26 01:30:43;;;;;;;6.80;1.73;;;;;;;1.70;100.00;100949.25;4919826;29;20040;-80
2023/04/26 01:33:10;;;;;;;7.90;2.53;;;;;;;1.68;100.00;100961.22;4920699;29;20044;-80
2023/04/26 01:35:36;;;;;;;7.90;2.78;;;;;;;1.65;100.00;100962.00;4920802;29;20044;-79
2023/04/26 01:38:03;;;;;;;5.28;1.55;;;;;;;1.65;100.00;100967.16;4919682;29;20048;-80
2023/04/26 01:40:30;;;;;;;7.20;1.85;;;;;;;1.59;100.00;100961.81;4902688;29;20048;-81
2023/04/26 01:42:56;;;;;;;11.60;1.95;;;;;;;1.61;100.00;100965.31;4901620;29;20143;-81
2023/04/26 01:45:23;;;;;;;6.07;2.10;;;;;;;1.61;100.00;100962.72;4901475;29;20147;-81
2023/04/26 01:47:49;;;;;;;6.40;2.05;;;;;;;1.54;100.00;100963.38;4916398;29;20151;-82
2023/04/26 01:50:19;;;;;;;6.68;2.53;;;;;;;1.55;100.00;100966.81;4901463;29;20048;-81
2023/04/26 01:52:45;;;;;;;7.80;1.75;;;;;;;1.48;100.00;100958.88;4917259;29;20100;-82
2023/04/26 01:55:12;;;;;;;2.78;1.95;;;;;;;1.44;100.00;100958.75;4904674;29;20044;-81
2023/04/26 01:57:38;;;;;;;3.88;1.70;;;;;;;1.45;100.00;100963.94;4920005;29;20046;-80
2023/04/26 02:00:07;;;;;;;17.10;4.78;;;;;;;1.51;100.00;100967.56;4904268;29;20471;-81
2023/04/26 02:02:34;;;;;;;5.63;2.38;;;;;;;1.47;100.00;100969.16;4919491;29;20060;-82
2023/04/26 02:05:00;;;;;;;10.88;2.28;;;;;;;1.46;100.00;100972.53;4919031;29;20051;-82
2023/04/26 02:07:27;;;;;;;5.93;2.47;;;;;;;1.39;100.00;100961.16;4919819;29;20050;-81
2023/04/26 02:09:53;;;;;;;7.43;1.90;;;;;;;1.31;100.00;100963.47;4919551;29;20036;-81
2023/04/26 02:12:19;;;;;;;4.63;2.15;;;;;;;1.27;100.00;100965.91;4919115;29;20051;-81
2023/04/26 02:14:46;;;;;;;4.57;1.98;;;;;;;1.19;100.00;100960.50;4918812;29;20490;-81
2023/04/26 02:17:13;;;;;;;4.07;2.03;;;;;;;1.18;100.00;100963.88;4919294;29;20142;-80
2023/04/26 02:19:40;;;;;;;3.95;2.38;;;;;;;1.16;100.00;100965.53;4934864;29;20043;-82
2023/04/26 02:22:06;;;;;;;6.22;2.42;;;;;;;1.18;100.00;100955.28;4919084;29;20485;-81
2023/04/26 02:24:35;;;;;;;6.05;1.55;;;;;;;1.12;100.00;100958.50;4934920;29;20407;-81
2023/04/26 02:27:03;;;;;;;4.88;1.65;;;;;;;1.12;100.00;100961.09;4918922;29;20484;-81
2023/04/26 02:29:30;;;;;;;8.27;2.50;;;;;;;1.15;100.00;100956.94;4919649;29;20040;-81
2023/04/26 02:31:58;;;;;;;6.55;2.35;;;;;;;1.21;100.00;100957.97;4918903;29;20036;-81
2023/04/26 02:34:25;;;;;;;8.25;2.10;;;;;;;1.21;100.00;100958.81;4920238;29;20036;-81
2023/04/26 02:36:51;;;;;;;7.32;3.13;;;;;;;1.16;100.00;100973.25;4903468;29;20131;-81
2023/04/26 02:39:18;;;;;;;16.13;3.30;;;;;;;1.11;100.00;100972.25;4921055;29;20530;-80
2023/04/26 02:41:45;;;;;;;10.45;2.45;;;;;;;1.09;100.00;100966.16;4924059;29;20044;-81
2023/04/26 02:44:11;;;;;;;3.88;2.30;;;;;;;1.08;100.00;100965.28;4904263;29;20103;-81
2023/04/26 02:46:38;;;;;;;5.05;1.83;;;;;;;1.02;100.00;100970.22;4918760;29;20492;-81
2023/04/26 02:49:04;;;;;;;9.68;2.28;;;;;;;1.01;100.00;100967.59;4902625;29;20043;-81
2023/04/26 02:51:31;;;;;;;3.78;1.80;;;;;;;0.99;100.00;100971.00;4903144;29;20047;-81
2023/04/26 02:53:58;;;;;;;2.95;2.25;;;;;;;0.99;100.00;100967.50;4918880;29;20040;-81
2023/04/26 02:56:24;;;;;;;4.07;2.00;;;;;;;0.97;100.00;100962.31;4902668;29;20048;-81
2023/04/26 02:58:51;;;;;;;11.07;2.38;;;;;;;0.90;100.00;100957.78;4902984;29;20052;-82
2023/04/26 03:01:18;;;;;;;10.13;3.55;;;;;;;0.89;100.00;100970.63;4902754;29;20083;-82
2023/04/26 03:03:44;;;;;;;8.65;2.20;;;;;;;0.90;100.00;100962.94;4919088;29;20547;-80
2023/04/26 03:06:11;;;;;;;8.55;2.40;;;;;;;0.99;100.00;100971.00;4887241;29;20139;-81
2023/04/26 03:08:37;;;;;;;7.50;2.38;;;;;;;1.01;100.00;100967.59;4934356;29;20054;-81
2023/04/26 03:11:04;;;;;;;11.30;3.38;;;;;;;0.96;100.00;100963.13;4918605;29;20036;-82
2023/04/26 03:13:44;;;;;;;8.80;2.83;;;;;;;0.95;100.00;100968.25;4920428;29;20051;-81
2023/04/26 03:16:10;;;;;;;7.07;2.63;;;;;;;0.89;100.00;100966.34;4918559;29;20039;-82
2023/04/26 03:18:37;;;;;;;7.43;3.10;;;;;;;0.84;100.00;100969.59;4918512;29;20123;-82
2023/04/26 03:21:04;;;;;;;7.68;2.53;;;;;;;0.89;100.00;100966.34;4918407;29;20048;-81
2023/04/26 03:23:30;;;;;;;6.47;2.33;;;;;;;0.94;100.00;100971.63;4919582;29;20036;-82
2023/04/26 03:25:57;;;;;;;11.27;4.60;;;;;;;1.02;100.00;100962.50;4902757;29;20040;-80
2023/04/26 03:28:24;;;;;;;6.22;2.40;;;;;;;1.04;100.00;100967.69;4903042;29;20040;-81
2023/04/26 03:30:51;;;;;;;8.88;2.70;;;;;;;1.11;100.00;100964.53;4917714;29;20558;-82
2023/04/26 03:33:17;;;;;;;12.05;2.40;;;;;;;1.14;100.00;100964.63;4918565;29;20036;-81
2023/04/26 03:35:44;;;;;;;8.88;2.85;;;;;;;1.15;100.00;100956.06;4918839;29;20115;-81
2023/04/26 03:38:10;;;;;;;4.78;2.58;;;;;;;1.15;100.00;100950.91;4902584;29;20043;-81
2023/04/26 03:40:37;;;;;;;8.00;2.15;;;;;;;1.09;100.00;100954.13;4917793;29;20051;-81
2023/04/26 03:43:03;;;;;;;8.20;2.38;;;;;;;1.04;100.00;100960.81;4902374;29;20052;-83
2023/04/26 03:45:30;;;;;;;6.68;2.50;;;;;;;1.03;100.00;100959.09;4918489;29;20047;-81
2023/04/26 03:47:57;;;;;;;7.95;2.88;;;;;;;0.96;100.00;100965.72;4917968;29;20067;-81
2023/04/26 03:50:25;;;;;;;9.77;2.30;;;;;;;0.93;100.00;100957.88;4917663;29;20487;-82
2023/04/26 03:52:52;;;;;;;7.93;2.72;;;;;;;0.87;100.00;100970.53;4919086;29;20063;-80
2023/04/26 03:55:19;;;;;;;9.70;3.15;;;;;;;0.84;100.00;100965.28;4901800;29;20522;-80
2023/04/26 03:57:46;;;;;;;5.22;3.72;;;;;;;0.86;100.00;100966.22;4917908;29;20254;-82
2023/04/26 04:00:41;;;;;;;11.63;2.50;;;;;;;0.85;100.00;100963.56;4905236;29;20055;-82
2023/04/26 04:03:10;;;;;;;13.63;3.10;;;;;;;0.86;100.00;100962.75;4919749;29;20075;-81
2023/04/26 04:05:37;;;;;;;7.57;3.30;;;;;;;0.95;100.00;100966.56;4917342;29;20119;-81
2023/04/26 04:08:04;;;;;;;6.10;2.30;;;;;;;1.02;100.00;100964.16;4901334;29;20043;-81
2023/04/26 04:10:35;;;;;;;7.72;2.65;;;;;;;1.19;100.00;100967.34;4902501;29;20442;-82
2023/04/26 04:13:01;;;;;;;7.22;3.13;;;;;;;1.30;100.00;100963.44;4916807;29;20068;-82
2023/04/26 04:15:28;;;;;;;7.80;2.55;;;;;;;1.45;100.00;100966.53;4917328;29;20054;-81
2023/04/26 04:17:54;;;;;;;7.00;2.78;;;;;;;1.49;100.00;100958.06;4901692;29;20067;-81
2023/04/26 04:20:21;;;;;;;11.43;3.10;;;;;;;1.43;100.00;100969.88;4900787;29;20051;-81
2023/04/26 04:22:48;;;;;;;12.27;2.97;;;;;;;1.37;100.00;100962.81;4917139;29;20048;-81
2023/04/26 04:25:15;;;;;;;4.88;3.17;;;;;;;1.38;100.00;100963.69;4916642;29;20044;-82
2023/04/26 04:27:42;;;;;;;7.88;2.53;;;;;;;1.52;100.00;100969.31;4917592;29;20048;-82
2023/04/26 04:30:10;;;;;;;8.30;2.80;;;;;;;1.62;100.00;100974.81;4917309;29;20063;-82
2023/04/26 04:32:38;;;;;;;8.15;3.03;;;;;;;1.74;100.00;100964.00;4917189;29;20044;-80
2023/04/26 04:35:06;;;;;;;12.15;3.10;;;;;;;1.85;100.00;100973.81;4901257;29;20080;-80
2023/04/26 04:37:33;;;;;;;11.88;2.53;;;;;;;1.92;100.00;100976.63;4900651;29;20475;-79
2023/04/26 04:40:00;;;;;;;13.00;3.15;;;;;;;2.00;100.00;100976.88;4917739;29;20044;-79
2023/04/26 04:42:27;;;;;;;10.88;3.22;;;;;;;2.07;100.00;100981.38;4917475;29;20040;-80
2023/04/26 04:44:55;;;;;;;4.68;2.70;;;;;;;2.14;100.00;100975.59;4917663;29;20527;-81
2023/04/26 04:47:21;;;;;;;7.10;2.28;;;;;;;2.18;100.00;100981.72;4917494;29;20044;-80
2023/04/26 04:49:48;;;;;;;15.60;5.10;;;;;;;2.20;100.00;100980.06;4902198;29;20040;-81
2023/04/26 04:52:20;;;;;;;14.57;4.45;;;;;;;2.21;100.00;100980.94;4917611;29;20046;-80
2023/04/26 04:54:48;;;;;;;10.63;2.58;;;;;;;2.18;100.00;100975.69;4917711;29;20044;-81
2023/04/26 04:57:15;;;;;;;8.70;2.95;;;;;;;2.17;100.00;100979.97;4917926;29;20064;-81
2023/04/26 04:59:42;;;;;;;10.98;3.85;;;;;;;2.15;100.00;100982.50;4901659;29;20462;-82
2023/04/26 05:02:08;;;;;;;6.32;2.40;;;;;;;2.10;100.00;100984.09;4932194;29;20146;-80
2023/04/26 05:04:35;;;;;;;7.75;2.72;;;;;;;2.12;100.00;100991.88;4917212;29;20044;-81
2023/04/26 05:07:01;;;;;;;7.95;2.85;;;;;;;2.05;100.00;100989.94;4917979;29;20051;-80
2023/04/26 05:09:28;;;;;;;7.60;2.03;;;;;;;1.98;100.00;100991.44;4917248;29;20116;-80
2023/04/26 05:11:54;;;;;;;6.95;2.58;;;;;;;1.90;100.00;100992.91;4932522;29;20039;-80
2023/04/26 05:14:21;;;;;;;6.07;2.90;;;;;;;1.83;100.00;100990.97;4900517;29;20036;-81
2023/04/26 05:16:48;;;;;;;12.85;3.85;;;;;;;1.78;100.00;100994.25;4917101;29;20036;-80
2023/04/26 05:19:14;;;;;;;15.25;4.25;;;;;;;1.75;100.00;100998.47;4917190;29;20068;-82
2023/04/26 05:21:41;;;;;;;6.65;3.05;;;;;;;1.73;100.00;101000.09;4901880;29;20060;-80
2023/04/26 05:24:08;;;;;;;11.00;3.72;;;;;;;1.73;100.00;100997.53;4917835;29;20032;-81
2023/04/26 05:26:35;;;;;;;8.93;3.83;;;;;;;1.79;100.00;101002.91;4917498;29;20036;-81
2023/04/26 05:29:02;;;;;;;7.68;2.67;;;;;;;1.86;100.00;101004.81;4904446;29;20040;-81
2023/04/26 05:31:31;;;;;;;6.18;2.78;;;;;;;1.89;100.00;101015.28;4921028;29;20050;-81
2023/04/26 05:33:57;;;;;;;4.90;2.42;;;;;;;1.92;100.00;101006.75;4905953;29;20052;-81
2023/04/26 05:36:24;;;;;;;7.38;2.90;;;;;;;1.95;100.00;101015.44;4906849;29;20082;-82
2023/04/26 05:38:51;;;;;;;13.05;3.90;;;;;;;1.98;100.00;101001.75;4921548;29;20482;-81
2023/04/26 05:41:17;;;;;;;10.63;2.42;;;;;;;2.10;100.00;101011.59;4936444;29;20048;-81
2023/04/26 05:43:44;;;;;;;7.90;2.85;;;;;;;2.14;100.00;101010.88;4920501;29;20119;-82
2023/04/26 05:46:11;;;;;;;13.18;3.30;;;;;;;2.16;100.00;101004.03;4920748;29;20044;-80
2023/04/26 05:48:40;;;;;;;16.05;5.95;;;;;;;2.20;100.00;101021.38;4921409;29;20108;-82
2023/04/26 05:51:07;;;;;;;9.35;2.90;;;;;;;2.27;100.00;101019.91;4921470;29;20082;-81
2023/04/26 05:53:34;;;;;;;7.28;2.63;;;;;;;2.31;100.00;101024.31;4905580;29;20044;-81
2023/04/26 05:56:00;;;;;;;6.53;2.50;;;;;;;2.36;100.00;101014.13;4905745;29;20040;-81
2023/04/26 05:58:27;;;;;;;6.15;3.08;;;;;;;2.46;100.00;101013.56;4905841;29;20439;-82
2023/04/26 06:00:54;;;;;;;7.45;2.28;;;;;;;2.60;100.00;101014.84;4904521;29;20479;-81
2023/04/26 06:03:21;;;;;;;8.55;2.53;;;;;;;2.67;100.00;101020.19;4922139;29;20075;-81
2023/04/26 06:05:47;;;;;;;4.45;2.72;;;;;;;2.70;100.00;101013.41;4904343;29;20115;-81
2023/04/26 06:08:14;;;;;;;9.27;2.97;;;;;;;2.79;100.00;101025.72;4919778;29;20071;-81
2023/04/26 06:10:40;;;;;;;5.53;2.92;;;;;;;2.83;99.98;101018.94;4904677;29;20075;-82
2023/04/26 06:13:07;;;;;;;5.15;3.28;;;;;;;2.84;100.00;101018.09;4904242;29;20052;-81
2023/04/26 06:15:34;;;;;;;11.13;2.80;;;;;;;2.91;100.00;101017.47;4904519;29;20044;-83
2023/04/26 06:18:00;;;;;;;8.05;3.30;;;;;;;3.01;99.42;101016.00;4920416;29;20036;-80
2023/04/26 06:20:27;;;;;;;9.15;4.65;;;;;;;3.20;99.13;101019.97;4929117;23;20120;-80
2023/04/26 06:22:54;;;;;;;6.00;1.90;;;;;;;3.45;97.63;101017.16;4941908;29;20090;-82
2023/04/26 06:25:22;;;;;;;9.10;2.97;;;;;;;3.65;95.87;101016.84;4959154;29;20046;-81
2023/04/26 06:27:48;;;;;;;11.50;3.45;;;;;;;3.86;94.98;101015.59;4926080;29;20043;-81
2023/04/26 06:30:15;;;;;;;5.75;2.78;;;;;;;4.13;93.49;101021.44;4941323;29;20039;-82
2023/04/26 06:32:44;;;;;;;6.60;2.05;;;;;;;4.42;91.49;101030.72;4925602;29;20047;-81
2023/04/26 06:35:11;;;;;;;6.57;2.63;;;;;;;4.69;90.36;101017.47;4941408;29;20062;-81
2023/04/26 06:37:38;;;;;;;5.05;2.35;;;;;;;4.85;88.50;101029.06;4940755;29;20122;-81
2023/04/26 06:40:07;;;;;;;11.27;2.63;;;;;;;4.89;88.30;101035.16;4941376;29;20422;-81
2023/04/26 06:42:33;;;;;;;8.68;2.33;;;;;;;4.88;88.23;101030.84;4957857;29;20031;-81
2023/04/26 06:45:00;;;;;;;9.10;1.80;;;;;;;4.63;88.10;101028.59;4940899;29;20446;-80
2023/04/26 06:47:26;;;;;;;11.38;4.43;;;;;;;4.53;88.94;101031.81;4940796;29;20162;-82
2023/04/26 06:49:55;;;;;;;7.53;2.33;;;;;;;4.59;88.81;101028.50;4925837;29;20081;-83
2023/04/26 06:52:22;;;;;;;7.80;1.90;;;;;;;4.72;88.21;101034.81;4941620;29;20063;-81
2023/04/26 06:54:50;;;;;;;10.65;2.67;;;;;;;4.96;87.15;101037.03;4941184;29;20054;-81
2023/04/26 06:57:17;;;;;;;11.35;2.38;;;;;;;5.38;85.89;101030.06;4941323;29;20039;-81
2023/04/26 06:59:44;;;;;;;7.70;2.33;;;;;;;5.89;83.20;101028.34;4940571;29;20086;-81
2023/04/26 07:02:10;;;;;;;8.57;2.70;;;;;;;6.26;79.89;101032.41;4940729;29;20039;-81
2023/04/26 07:04:37;;;;;;;5.30;2.55;;;;;;;6.29;78.89;101035.06;4940842;29;20047;-80
2023/04/26 07:07:03;;;;;;;3.20;1.60;;;;;;;6.28;79.17;101045.44;4940963;29;20071;-81
2023/04/26 07:09:30;;;;;;;4.63;2.05;;;;;;;6.14;79.61;101040.06;4940757;29;20047;-82
2023/04/26 07:11:57;;;;;;;5.22;2.35;;;;;;;6.07;80.80;101038.19;4940708;29;20035;-82
2023/04/26 07:14:25;;;;;;;5.45;1.73;;;;;;;6.00;81.20;101044.13;4941467;29;20502;-81
2023/04/26 07:16:52;;;;;;;8.15;2.33;;;;;;;6.13;81.18;101043.50;4957978;29;20063;-82
2023/04/26 07:19:18;;;;;;;4.45;2.08;;;;;;;6.15;79.96;101036.56;4940220;29;20404;-82
2023/04/26 07:21:45;;;;;;;5.05;2.33;;;;;;;6.58;79.70;101046.72;4940481;29;20051;-80
2023/04/26 07:24:12;;;;;;;9.88;2.53;;;;;;;7.06;77.38;101044.75;4924709;29;20471;-80
2023/04/26 07:26:40;;;;;;;5.88;2.00;;;;;;;7.66;74.04;101044.50;4924415;29;20051;-80
2023/04/26 07:29:06;;;;;;;7.20;2.30;;;;;;;8.20;72.36;101029.28;4924334;29;20186;-82
2023/04/26 07:31:32;;;;;;;4.57;2.00;;;;;;;8.76;70.98;101038.34;4924957;29;20047;-82
2023/04/26 07:33:59;;;;;;;4.85;2.83;;;;;;;8.95;70.79;101034.06;4940073;29;20054;-81
2023/04/26 07:36:27;;;;;;;5.65;1.73;;;;;;;9.35;68.95;101041.19;4924609;29;20089;-81
2023/04/26 07:38:53;;;;;;;8.13;2.15;;;;;;;9.48;66.27;101040.31;4940553;29;20043;-82
2023/04/26 07:41:20;;;;;;;7.97;2.35;;;;;;;8.97;66.73;101036.69;4939778;29;20039;-81
2023/04/26 07:43:49;;;;;;;6.85;2.10;;;;;;;8.93;67.69;101036.69;4940150;29;20446;-82
2023/04/26 07:46:16;;;;;;;3.83;2.58;;;;;;;8.74;67.77;101042.69;4940228;29;20047;-82
2023/04/26 07:48:42;;;;;;;7.30;2.47;;;;;;;8.65;67.53;101038.28;4941044;29;20042;-81
2023/04/26 07:51:13;;;;;;;6.45;2.10;;;;;;;8.77;67.41;101045.31;4941445;29;20039;-80
2023/04/26 07:53:40;;;;;;;5.55;2.38;;;;;;;9.07;66.57;101048.91;4943342;29;20047;-81
2023/04/26 07:56:08;;;;;;;7.65;2.17;;;;;;;9.59;64.38;101035.09;4959565;29;20039;-81
2023/04/26 07:58:35;;;;;;;7.15;2.58;;;;;;;9.72;63.79;101043.84;4943485;29;20086;-81
2023/04/26 08:01:05;;;;;;;4.90;2.38;;;;;;;9.03;64.97;101048.03;4944435;29;20110;-82
2023/04/26 08:03:32;;;;;;;3.20;1.52;;;;;;;8.44;67.61;101044.22;4944009;29;20074;-82
2023/04/26 08:05:59;;;;;;;5.55;1.75;;;;;;;8.45;67.87;101040.78;4944586;29;20073;-82
2023/04/26 08:08:26;;;;;;;6.07;2.28;;;;;;;8.55;68.57;101037.38;4944032;29;20039;-82
2023/04/26 08:10:54;;;;;;;5.80;2.35;;;;;;;9.85;64.83;101034.25;4944643;29;20115;-80
2023/04/26 08:13:21;;;;;;;5.05;1.70;;;;;;;10.49;58.94;101037.72;4945902;29;20050;-82
2023/04/26 08:15:48;;;;;;;6.32;2.05;;;;;;;10.79;57.11;101043.72;4940180;29;20137;-82
2023/04/26 08:18:15;;;;;;;5.07;1.55;;;;;;;11.46;54.52;101042.53;4939940;29;20035;-81
2023/04/26 08:20:42;;;;;;;5.78;2.03;;;;;;;12.34;50.67;101038.34;4939626;29;20055;-81
2023/04/26 08:23:08;;;;;;;8.35;2.17;;;;;;;12.23;49.90;101031.44;4939706;29;20058;-80
2023/04/26 08:25:35;;;;;;;4.15;1.60;;;;;;;12.85;48.50;101032.53;4939914;29;20153;-82
2023/04/26 08:28:02;;;;;;;5.28;2.40;;;;;;;11.61;48.87;101032.81;4955391;29;20389;-81
2023/04/26 08:30:30;;;;;;;9.20;1.17;;;;;;;11.10;49.59;101036.59;4939336;29;20039;-82
2023/04/26 08:32:57;;;;;;;3.75;1.45;;;;;;;12.08;48.15;101032.47;4923641;29;20067;-82
2023/04/26 08:35:23;;;;;;;3.80;1.60;;;;;;;12.44;46.81;101036.47;4922914;29;20043;-82
2023/04/26 08:37:50;;;;;;;8.88;2.00;;;;;;;11.66;48.79;101029.28;4938979;29;20122;-81
2023/04/26 08:40:24;;;;;;;7.50;1.70;;;;;;;10.66;50.00;101040.28;4939445;29;20506;-81
2023/04/26 08:42:52;;;;;;;4.43;1.65;;;;;;;9.80;51.52;101041.22;4939220;29;20043;-83
2023/04/26 08:45:22;;;;;;;5.45;1.55;;;;;;;9.37;52.26;101048.16;4939819;29;20042;-81
2023/04/26 08:47:53;;;;;;;2.85;1.50;;;;;;;9.05;52.35;101046.31;4939648;29;20042;-82
2023/04/26 08:50:23;;;;;;;4.03;1.70;;;;;;;9.05;53.23;101042.84;4939402;29;20046;-82
2023/04/26 08:52:51;;;;;;;3.72;1.63;;;;;;;9.08;52.91;101056.75;4922823;29;20043;-82
2023/04/26 08:55:20;;;;;;;3.03;1.60;;;;;;;8.98;52.92;101048.88;4939180;29;20039;-82
2023/04/26 08:57:48;;;;;;;3.67;1.48;;;;;;;10.03;51.18;101043.84;4939100;29;20129;-81
2023/04/26 09:00:18;;;;;;;3.30;1.48;;;;;;;11.44;46.79;101046.91;4938556;29;20482;-82
2023/04/26 09:02:51;;;;;;;3.20;1.35;;;;;;;11.43;45.54;101039.91;4938462;29;20071;-81
2023/04/26 09:05:23;;;;;;;6.80;1.65;;;;;;;11.68;45.94;101044.97;4939275;29;20043;-82
2023/04/26 09:07:51;;;;;;;5.95;0.90;;;;;;;12.21;44.52;101041.06;4939616;29;20047;-81
2023/04/26 09:10:20;;;;;;;1.65;1.17;;;;;;;12.80;43.90;101037.84;4939057;29;20034;-81
2023/04/26 09:12:52;;;;;;;2.10;1.00;;;;;;;12.67;43.52;101031.88;4923095;29;20446;-81
2023/04/26 09:15:21;;;;;;;5.30;1.50;;;;;;;12.98;43.36;101043.75;4939053;29;20043;-82
2023/04/26 09:17:50;;;;;;;5.78;1.20;;;;;;;13.72;42.54;101040.09;4939025;29;20109;-82
2023/04/26 09:20:28;;;;;;;1.20;0.82;;;;;;;13.88;39.61;101033.72;4939271;29;20051;-81
2023/04/26 09:23:09;;;;;;;1.90;0.90;;;;;;;12.86;39.90;101039.53;4939780;29;20050;-81
2023/04/26 09:25:36;;;;;;;4.55;1.00;;;;;;;11.62;42.42;101038.03;4938910;29;20447;-83
2023/04/26 09:28:04;;;;;;;3.83;1.13;;;;;;;10.91;44.98;101039.31;4939804;29;20086;-81
2023/04/26 09:30:39;;;;;;;3.15;1.27;;;;;;;10.90;45.26;101042.81;4940300;29;20054;-81
2023/04/26 09:33:08;;;;;;;2.55;0.98;;;;;;;11.45;42.33;101040.78;4924190;29;20047;-81
2023/04/26 09:35:37;;;;;;;2.55;0.90;;;;;;;11.74;42.11;101044.94;4924763;29;20050;-81
2023/04/26 09:38:07;;;;;;;4.68;0.80;;;;;;;12.25;41.21;101041.91;4923384;29;20043;-80
2023/04/26 09:40:42;;;;;;;2.78;1.10;;;;;;;13.53;38.88;101042.13;4923667;29;20051;-81
2023/04/26 09:43:12;;;;;;;3.90;1.27;;;;;;;14.25;37.66;101034.84;4956702;29;20062;-83
2023/04/26 09:45:58;;;;;;;3.55;1.48;;;;;;;14.89;36.36;101029.25;4938336;29;20047;-81
2023/04/26 09:48:29;;;;;;;3.15;1.40;;;;;;;14.06;38.14;101026.38;4922775;29;20545;-82
2023/04/26 09:50:59;;;;;;;4.68;1.58;;;;;;;12.71;39.78;101046.69;4938467;29;20043;-82
2023/04/26 09:53:37;;;;;;;2.47;1.65;;;;;;;12.54;40.21;101041.63;4923645;29;20073;-81
2023/04/26 09:56:12;;;;;;;3.63;1.05;;;;;;;12.98;40.17;101035.88;4938270;29;20054;-83
2023/04/26 09:58:57;;;;;;;2.05;0.80;;;;;;;13.59;39.78;101033.31;4939397;29;20087;-82
2023/04/26 10:01:25;;;;;;;3.75;0.95;;;;;;;14.24;38.00;101033.09;4925649;29;20043;-81
2023/04/26 10:03:52;;;;;;;3.28;1.10;;;;;;;13.57;39.51;101042.09;4939946;29;20053;-81
2023/04/26 10:06:19;;;;;;;4.93;1.35;;;;;;;12.75;39.96;101044.91;4941722;29;20043;-80
2023/04/26 10:08:45;;;;;;;4.38;1.35;;;;;;;12.01;42.32;101049.13;4945003;29;20074;-81
2023/04/26 10:11:12;;;;;;;6.50;1.45;;;;;;;11.56;43.59;101036.34;4934491;29;20087;-81
2023/04/26 10:13:41;;;;;;;4.72;1.13;;;;;;;10.98;44.64;101053.25;4919458;29;20095;-81
2023/04/26 10:16:11;;;;;;;2.33;1.35;;;;;;;11.24;44.19;101047.88;4938369;29;20118;-81
2023/04/26 10:18:38;;;;;;;1.90;1.00;;;;;;;11.48;43.30;101051.25;4938444;29;20040;-81
2023/04/26 10:21:28;;;;;;;2.10;1.00;;;;;;;12.08;41.22;101044.69;4938318;29;20091;-82
2023/04/26 10:23:56;;;;;;;1.67;0.82;;;;;;;13.60;39.11;101038.53;4938465;29;20031;-82
2023/04/26 10:26:56;;;;;;;4.53;1.10;;;;;;;13.61;37.93;101036.75;4922169;29;20063;-82
2023/04/26 10:29:24;;;;;;;3.45;1.10;;;;;;;13.13;39.65;101042.66;4938073;29;20046;-81
2023/04/26 10:32:03;;;;;;;3.17;1.02;;;;;;;12.85;40.85;101043.03;4921946;29;20165;-82
2023/04/26 10:34:35;;;;;;;3.25;1.30;;;;;;;12.57;41.41;101041.59;4939800;29;20039;-82
2023/04/26 10:37:17;;;;;;;6.68;2.58;;;;;;;12.44;41.79;101041.72;4938579;29;20513;-81
2023/04/26 10:39:47;;;;;;;3.58;1.23;;;;;;;11.61;43.41;101038.06;4940162;29;20050;-81
2023/04/26 10:42:29;;;;;;;3.38;1.13;;;;;;;10.83;45.35;101048.06;4939837;29;20078;-81
2023/04/26 10:45:01;;;;;;;3.33;1.15;;;;;;;10.53;45.60;101037.72;4940182;29;20091;-81
2023/04/26 10:47:32;;;;;;;2.70;1.23;;;;;;;10.98;45.41;101041.91;4939691;29;20099;-82
2023/04/26 10:50:06;;;;;;;4.25;1.83;;;;;;;12.39;41.87;101036.53;4940309;29;20042;-81
2023/04/26 10:52:32;;;;;;;1.02;0.93;;;;;;;12.82;40.41;101041.31;4939880;29;20052;-81
2023/04/26 10:55:01;;;;;;;5.88;1.05;;;;;;;13.08;38.54;101034.88;4939447;29;20467;-81
2023/04/26 10:57:51;;;;;;;1.55;0.77;;;;;;;13.52;36.87;101025.50;4925216;29;20492;-81
2023/04/26 11:00:20;;;;;;;2.75;0.65;;;;;;;14.02;36.49;101020.28;4940524;29;20036;-81
2023/04/26 11:03:04;;;;;;;4.10;0.63;;;;;;;13.69;35.97;101032.28;4940910;29;20152;-81
2023/04/26 11:05:37;;;;;;;2.28;0.65;;;;;;;12.24;37.14;101032.28;4939904;29;20122;-81
2023/04/26 11:08:17;;;;;;;1.42;0.82;;;;;;;11.40;38.42;101040.78;4922617;29;20074;-81
2023/04/26 11:10:51;;;;;;;5.10;1.63;;;;;;;11.92;38.18;101025.56;4922975;29;20138;-81
2023/04/26 11:13:18;;;;;;;;;;;;;;;13.47;36.50;101026.47;4938398;29;20444;-81
2023/04/26 11:15:45;;;;;;;2.15;0.70;;;;;;;14.17;35.49;101023.56;4938115;29;19918;-81
2023/04/26 11:18:11;;;;;;;2.53;1.08;;;;;;;14.27;35.53;101021.63;4921353;29;20430;-81
2023/04/26 11:20:38;;;;;;;1.23;0.95;;;;;;;14.48;35.27;101012.47;4936912;29;20177;-81
2023/04/26 11:23:09;;;;;;;1.13;0.60;;;;;;;13.85;36.24;101022.38;4938173;29;20036;-81
2023/04/26 11:25:39;;;;;;;2.15;0.70;;;;;;;13.41;36.18;101035.31;4936785;29;20095;-81
2023/04/26 11:28:06;;;;;;;2.20;0.88;;;;;;;12.76;36.85;101025.59;4920847;29;20479;-81
2023/04/26 11:30:33;;;;;;;2.75;1.33;;;;;;;13.29;36.77;101020.53;4905762;29;20141;-81
2023/04/26 11:33:02;;;;;;;0.95;0.88;;;;;;;13.83;35.80;101011.88;4937182;29;20051;-81